Chino Valley, AZ

1:32 PM MST on March 04, 2015 (GMT -0700)
Chino Valley, Arizona | Change Station
CLOSE
Current Station
Personal Weather Station
Location: Chino Valley, AZ
Elevation: 4626 ft
Nearby Weather Stations

Elev 4626 ft 34.79 °N, 112.48 °W | Updated 378 days ago

Clear
Clear
50 °F
Feels Like 50 °F
N
5
Wind Variable Wind from NNE
Gusts mph

Today
High -- | Low -- °F
--% Chance of Precip.
Yesterday
High -- | Low -- °F
Precip. -- in
6:55 AM 6:28 PM
Waxing Gibbous, 99% visible
Pressure 30.01 in
Visibility 10.0 miles
Clouds Few 2400 ft
Dew Point 21 °F
Humidity 31%
Rainfall 0.00 in
Snow Depth Not available.
UV 7 out of 12
Pollen 6.70 out of 12
Air Quality Not available.
Flu Activity Not available.
METAR KPRC 041953Z 34008KT 10SM FEW024 09/M06 A3006 RMK AO2 SLP160 T00891056

More Conditions Fewer Conditions

Pressure 30.01 in
Visibility 10.0 miles
Clouds Few 2400 ft
Dew Point 21 °F
Humidity 31%
Rainfall 0.00 in
Snow Depth Not available.
UV 7 out of 12
Pollen 6.70 out of 12
Air Quality Not available.
Flu Activity Not available.
METAR KPRC 041953Z 34008KT 10SM FEW024 09/M06 A3006 RMK AO2 SLP160 T00891056

More Conditions Fewer Conditions

10-Day Weather Forecast

Almanac

Astronomy

Mar. 04, 2015 Rise Set
Actual Time
Civil Twilight
Nautical Twilight
Astronomical Twilight
Moon
Length of Visible Light
Length of Day
Tomorrow will be .
, % of the Moon is Illuminated

Today's Extremes

State Highs State Lows

Community

WunderPhotos

Upload Photos

1,802,575 photos uploaded!

WunderBlogs® & News

Nearby

Air Quality

  Air Quality AQ Index Pollutant
Not available.

Snow Depth

Station Depth Elevation

Earthquake Activity

City Distance Mag. Time & Date
Minimum magnitude displayed is 2.5.

Coastal Water Temperatures

Place Temperature

Nearby Weather Stations